createdAt,value
2022-11-24T15:59:20.200Z,91042.50
2022-11-24T16:01:49.498Z,91048.31
2022-11-24T16:04:16.173Z,91054.13
2022-11-24T16:06:42.449Z,91060.25
2022-11-24T16:09:11.395Z,91055.88
2022-11-24T16:11:37.655Z,91066.72
2022-11-24T16:14:04.412Z,91071.06
2022-11-24T16:16:30.753Z,91074.53
2022-11-24T16:18:57.033Z,91087.31
2022-11-24T16:21:23.317Z,91095.00
2022-11-24T16:23:49.611Z,91100.50
2022-11-24T16:26:15.888Z,91097.72
2022-11-24T16:28:42.760Z,91094.09
2022-11-24T16:31:09.113Z,91092.22
2022-11-24T16:33:38.509Z,91089.72
2022-11-24T16:36:04.866Z,91093.94
2022-11-24T16:38:31.136Z,91098.59
2022-11-24T16:40:57.435Z,91100.50
2022-11-24T16:43:24.434Z,91080.56
2022-11-24T16:45:59.917Z,91092.84
2022-11-24T16:48:26.247Z,91090.41
2022-11-24T16:50:52.604Z,91090.63
2022-11-24T16:53:18.888Z,91089.75
2022-11-24T16:55:45.176Z,91085.69
2022-11-24T16:58:11.455Z,91086.22
2022-11-24T17:00:37.740Z,91090.91
2022-11-24T17:03:04.028Z,91090.84
2022-11-24T17:05:30.295Z,91086.38
2022-11-24T17:07:56.639Z,91096.78
2022-11-24T17:10:22.917Z,91094.00
2022-11-24T17:12:49.206Z,91096.78
2022-11-24T17:15:32.209Z,91100.91
2022-11-24T17:20:46.344Z,91087.63
2022-11-24T17:23:12.620Z,91088.19
2022-11-24T17:25:38.877Z,91086.56
2022-11-24T17:28:05.151Z,91082.72
2022-11-24T17:30:31.451Z,91084.81
2022-11-24T17:32:57.728Z,91091.09
2022-11-24T17:35:24.001Z,91090.34
2022-11-24T17:37:50.281Z,91074.31
2022-11-24T17:40:34.310Z,91087.31
2022-11-24T17:43:00.714Z,91082.06
2022-11-24T17:45:27.566Z,91080.09
2022-11-24T17:47:54.165Z,91074.47
2022-11-24T17:50:25.368Z,91076.13
2022-11-24T17:52:52.259Z,91088.22
2022-11-24T17:55:18.566Z,91088.63
2022-11-24T17:57:44.851Z,91090.22
2022-11-24T18:00:11.495Z,91084.09
2022-11-24T18:02:38.453Z,91078.84
2022-11-24T18:05:04.936Z,91085.38
2022-11-24T18:07:31.241Z,91082.59
2022-11-24T18:09:57.687Z,91077.31
2022-11-24T18:12:24.024Z,91074.34
2022-11-24T18:14:50.364Z,91062.03
2022-11-24T18:17:16.663Z,91059.41
2022-11-24T18:19:42.930Z,91057.13
2022-11-24T18:22:09.192Z,91049.75
2022-11-24T18:24:35.486Z,91055.72
2022-11-24T18:27:01.752Z,91052.03
2022-11-24T18:29:28.015Z,91063.75
2022-11-24T18:31:54.417Z,91077.38
2022-11-24T18:34:20.752Z,91084.78
2022-11-24T18:36:50.681Z,91074.13
2022-11-24T18:39:18.077Z,91080.22
2022-11-24T18:41:44.748Z,91087.97
2022-11-24T18:44:11.039Z,91080.97
2022-11-24T18:46:37.580Z,91076.56
2022-11-24T18:49:03.997Z,91082.00
2022-11-24T18:51:30.283Z,91081.44
2022-11-24T18:53:59.324Z,91080.78
2022-11-24T18:56:25.698Z,91077.78
2022-11-24T18:58:52.362Z,91079.03
2022-11-24T19:01:19.498Z,91085.69
2022-11-24T19:03:48.605Z,91080.59
2022-11-24T19:06:19.338Z,91085.47
2022-11-24T19:08:45.647Z,91078.44
2022-11-24T19:11:24.900Z,91076.75
2022-11-24T19:13:51.228Z,91075.63
2022-11-24T19:16:18.091Z,91077.25
2022-11-24T19:18:47.655Z,91081.72
2022-11-24T19:21:18.665Z,91084.38
2022-11-24T19:23:45.098Z,91070.19
2022-11-24T19:26:11.429Z,91073.38
2022-11-24T19:28:37.706Z,91068.31
2022-11-24T19:31:04.584Z,91076.91
2022-11-24T19:33:30.904Z,91065.84
2022-11-24T19:36:02.238Z,91072.19
2022-11-24T19:38:30.156Z,91064.13
2022-11-24T19:41:00.578Z,91065.00
2022-11-24T19:43:26.855Z,91069.16
2022-11-24T19:45:53.177Z,91066.53
2022-11-24T19:48:19.506Z,91066.53
2022-11-24T19:50:45.779Z,91068.31
2022-11-24T19:53:12.057Z,91067.47
2022-11-24T19:55:38.329Z,91078.16
2022-11-24T19:58:04.619Z,91066.41
2022-11-24T20:00:32.233Z,91073.25
2022-11-24T20:02:58.720Z,91072.34
2022-11-24T20:05:25.082Z,91070.09
2022-11-24T20:07:51.385Z,91078.50
2022-11-24T20:10:17.700Z,91074.16
2022-11-24T20:12:43.977Z,91066.97
2022-11-24T20:15:10.256Z,91063.81
2022-11-24T20:17:36.549Z,91068.19
2022-11-24T20:20:02.856Z,91063.25
2022-11-24T20:22:29.564Z,91060.47
2022-11-24T20:24:55.904Z,91061.16
2022-11-24T20:27:22.203Z,91060.09
2022-11-24T20:29:48.485Z,91070.09
2022-11-24T20:32:19.355Z,91062.53
2022-11-24T20:34:45.788Z,91058.00
2022-11-24T20:37:13.505Z,91067.47
2022-11-24T20:39:39.826Z,91065.84
2022-11-24T20:42:06.136Z,91063.75
2022-11-24T20:44:32.431Z,91070.28
2022-11-24T20:47:00.199Z,91068.69
2022-11-24T20:49:26.492Z,91074.31
2022-11-24T20:51:57.115Z,91068.53
2022-11-24T20:54:23.443Z,91071.47
2022-11-24T20:56:49.751Z,91076.84
2022-11-24T20:59:17.172Z,91076.31
2022-11-24T21:01:43.849Z,91079.19
2022-11-24T21:04:10.858Z,91080.59
2022-11-24T21:06:37.131Z,91092.03
2022-11-24T21:09:04.350Z,91104.50
2022-11-24T21:11:30.879Z,91095.03
2022-11-24T21:13:57.210Z,91096.47
2022-11-24T21:16:24.224Z,91092.94
2022-11-24T21:18:51.268Z,91092.22
2022-11-24T21:21:17.745Z,91078.50
2022-11-24T21:23:46.741Z,91085.00
2022-11-24T21:26:16.819Z,91091.50
2022-11-24T21:28:43.855Z,91085.22
2022-11-24T21:31:11.268Z,91082.75
2022-11-24T21:33:45.376Z,91085.22
2022-11-24T21:36:12.052Z,91090.47
2022-11-24T21:38:38.333Z,91083.97
2022-11-24T21:41:05.455Z,91089.06
2022-11-24T21:43:31.752Z,91085.22
2022-11-24T21:46:04.050Z,91087.13
2022-11-24T21:48:30.360Z,91094.28
2022-11-24T21:51:00.201Z,91096.72
2022-11-24T21:53:26.672Z,91094.09
2022-11-24T21:55:59.431Z,91106.16
2022-11-24T21:58:25.812Z,91107.22
2022-11-24T22:00:52.238Z,91106.03
2022-11-24T22:03:18.686Z,91106.59
2022-11-24T22:05:54.517Z,91097.81
2022-11-24T22:08:21.159Z,91091.34
2022-11-24T22:10:47.529Z,91081.69
2022-11-24T22:13:13.816Z,91085.56
2022-11-24T22:15:40.120Z,91079.22
2022-11-24T22:18:06.467Z,91078.34
2022-11-24T22:20:32.748Z,91087.09
2022-11-24T22:22:59.040Z,91096.22
2022-11-24T22:25:25.305Z,91087.66
2022-11-24T22:27:51.578Z,91082.06
2022-11-24T22:30:17.853Z,91082.91
2022-11-24T22:32:44.319Z,91073.28
2022-11-24T22:35:10.598Z,91078.88
2022-11-24T22:37:36.881Z,91078.16
2022-11-24T22:40:03.271Z,91078.94
2022-11-24T22:42:29.593Z,91083.31
2022-11-24T22:44:55.856Z,91078.72
2022-11-24T22:47:22.120Z,91072.25
2022-11-24T22:49:48.396Z,91069.72
2022-11-24T22:52:14.698Z,91066.03
2022-11-24T22:54:41.192Z,91071.31
2022-11-24T22:57:07.514Z,91080.44
2022-11-24T22:59:33.790Z,91083.25
2022-11-24T23:02:00.098Z,91072.09
2022-11-24T23:04:26.523Z,91056.72
2022-11-24T23:06:52.968Z,91057.47
2022-11-24T23:09:19.236Z,91052.94
2022-11-24T23:11:45.508Z,91056.59
2022-11-24T23:14:12.940Z,91056.59
2022-11-24T23:16:39.340Z,91058.56
2022-11-24T23:19:05.660Z,91064.56
2022-11-24T23:21:32.599Z,91072.72
2022-11-24T23:23:59.408Z,91072.56
2022-11-24T23:26:26.601Z,91068.94
2022-11-24T23:28:52.875Z,91079.19
2022-11-24T23:31:20.722Z,91087.00
2022-11-24T23:33:47.284Z,91083.84
2022-11-24T23:36:14.264Z,91094.59
2022-11-24T23:38:40.591Z,91096.41
2022-11-24T23:41:07.531Z,91091.16
2022-11-24T23:43:33.971Z,91086.63
2022-11-24T23:46:03.539Z,91092.03
2022-11-24T23:48:29.858Z,91087.16
2022-11-24T23:50:56.151Z,91093.44
2022-11-24T23:53:22.496Z,91102.41
2022-11-24T23:55:52.827Z,91094.34
2022-11-24T23:58:19.098Z,91089.78
